createdAt,value
2022-10-06T00:01:19.478Z,25.73
2022-10-06T00:03:48.699Z,25.75
2022-10-06T00:06:19.082Z,25.78
2022-10-06T00:08:48.565Z,25.79
2022-10-06T00:11:18.198Z,25.77
2022-10-06T00:13:47.205Z,25.73
2022-10-06T00:16:22.567Z,25.68
2022-10-06T00:18:51.949Z,25.56
2022-10-06T00:21:20.251Z,25.51
2022-10-06T00:23:48.597Z,25.45
2022-10-06T00:26:17.744Z,25.44
2022-10-06T00:28:48.891Z,25.44
2022-10-06T00:31:20.411Z,25.47
2022-10-06T00:33:50.587Z,25.45
2022-10-06T00:36:19.153Z,25.49
2022-10-06T00:38:48.027Z,25.47
2022-10-06T00:41:19.101Z,25.49
2022-10-06T00:43:52.231Z,25.50
2022-10-06T00:46:29.522Z,25.51
2022-10-06T00:49:12.454Z,25.53
2022-10-06T00:51:46.063Z,25.56
2022-10-06T00:54:15.020Z,25.62
2022-10-06T00:56:43.713Z,25.66
2022-10-06T00:59:18.994Z,25.71
2022-10-06T01:02:16.398Z,25.77
2022-10-06T01:04:49.996Z,25.85
2022-10-06T01:07:21.576Z,25.90
2022-10-06T01:09:50.600Z,25.97
2022-10-06T01:12:19.336Z,26.04
2022-10-06T01:14:48.058Z,26.06
2022-10-06T01:17:22.700Z,26.10
2022-10-06T01:20:06.956Z,26.13
2022-10-06T01:22:38.720Z,26.12
2022-10-06T01:25:09.930Z,26.14
2022-10-06T01:27:40.542Z,26.19
2022-10-06T01:30:11.185Z,26.25
2022-10-06T01:32:41.161Z,26.33
2022-10-06T01:35:11.363Z,26.39
2022-10-06T01:37:39.756Z,26.46
2022-10-06T01:40:08.459Z,26.54
2022-10-06T01:42:37.414Z,26.57
2022-10-06T01:45:06.998Z,26.59
2022-10-06T01:47:35.970Z,26.61
2022-10-06T01:50:05.836Z,26.63
2022-10-06T01:52:34.219Z,26.63
2022-10-06T01:55:02.765Z,26.65
2022-10-06T01:57:31.515Z,26.68
2022-10-06T01:59:59.851Z,26.65
2022-10-06T02:02:32.703Z,26.63
2022-10-06T02:05:01.045Z,26.63
2022-10-06T02:07:29.761Z,26.62
2022-10-06T02:09:58.224Z,26.64
2022-10-06T02:12:26.648Z,26.68
2022-10-06T02:14:54.955Z,26.71
2022-10-06T02:17:23.805Z,26.76
2022-10-06T02:19:52.529Z,26.80
2022-10-06T02:22:21.015Z,26.85
2022-10-06T02:24:49.362Z,26.88
2022-10-06T02:27:18.141Z,26.92
2022-10-06T02:29:46.435Z,26.96
2022-10-06T02:32:14.769Z,27.01
2022-10-06T02:34:43.022Z,27.04
2022-10-06T02:37:11.986Z,27.11
2022-10-06T02:39:40.341Z,27.11
2022-10-06T02:42:09.116Z,27.15
2022-10-06T02:44:37.561Z,27.18
2022-10-06T02:47:05.854Z,27.23
2022-10-06T02:49:34.237Z,27.28
2022-10-06T02:52:02.622Z,27.33
2022-10-06T02:54:30.915Z,27.35
2022-10-06T02:56:59.278Z,27.38
2022-10-06T02:59:28.447Z,27.43
2022-10-06T03:05:37.574Z,27.54
2022-10-06T03:08:05.919Z,27.59
2022-10-06T03:10:34.422Z,27.65
2022-10-06T03:13:03.436Z,27.67
2022-10-06T03:15:31.819Z,27.69
2022-10-06T03:18:00.184Z,27.74
2022-10-06T03:20:28.558Z,27.80
2022-10-06T03:22:57.140Z,27.88
2022-10-06T03:25:25.474Z,27.96
2022-10-06T03:27:54.009Z,28.04
2022-10-06T03:30:22.334Z,28.11
2022-10-06T03:32:50.698Z,28.15
2022-10-06T03:35:19.224Z,28.20
2022-10-06T03:37:47.626Z,28.23
2022-10-06T03:40:16.219Z,28.29
2022-10-06T03:42:44.622Z,28.33
2022-10-06T03:45:12.921Z,28.37
2022-10-06T03:47:41.232Z,28.38
2022-10-06T03:50:10.546Z,28.39
2022-10-06T03:52:38.928Z,28.42
2022-10-06T03:55:07.523Z,28.49
2022-10-06T03:57:35.856Z,28.55
2022-10-06T04:00:04.351Z,28.63
2022-10-06T04:02:32.674Z,28.68
2022-10-06T04:05:01.030Z,28.75
2022-10-06T04:07:29.375Z,28.81
2022-10-06T04:09:57.707Z,28.91
2022-10-06T04:12:26.073Z,29.00
2022-10-06T04:14:57.856Z,29.09
2022-10-06T04:17:28.806Z,29.16
2022-10-06T04:19:57.210Z,29.25
2022-10-06T04:22:25.651Z,29.34
2022-10-06T04:24:54.138Z,29.39
2022-10-06T04:27:28.449Z,29.43
2022-10-06T04:29:57.433Z,29.49
2022-10-06T04:32:26.306Z,29.59
2022-10-06T04:34:54.692Z,29.62
2022-10-06T04:37:23.084Z,29.64
2022-10-06T04:39:51.458Z,29.72
2022-10-06T04:42:19.872Z,29.76
2022-10-06T04:44:48.317Z,29.85
2022-10-06T04:47:16.621Z,29.95
2022-10-06T04:49:45.026Z,30.04
2022-10-06T04:52:13.429Z,30.09
2022-10-06T04:54:41.824Z,30.17
2022-10-06T04:57:10.198Z,30.22
2022-10-06T04:59:58.653Z,30.26
2022-10-06T05:02:33.124Z,30.28
2022-10-06T05:05:01.574Z,30.29
2022-10-06T05:07:29.895Z,30.30
2022-10-06T05:09:58.345Z,30.34
2022-10-06T05:12:26.736Z,30.38
2022-10-06T05:14:55.301Z,30.42
2022-10-06T05:17:23.733Z,30.44
2022-10-06T05:19:52.018Z,30.45
2022-10-06T05:22:20.453Z,30.48
2022-10-06T05:24:50.695Z,30.52
2022-10-06T05:27:19.308Z,30.54
2022-10-06T05:29:48.694Z,30.57
2022-10-06T05:32:17.060Z,30.58
2022-10-06T05:34:45.490Z,30.60
2022-10-06T05:37:13.940Z,30.60
2022-10-06T05:39:42.318Z,30.67
2022-10-06T05:42:10.621Z,30.64
2022-10-06T05:44:39.095Z,30.61
2022-10-06T05:47:07.601Z,30.60
2022-10-06T05:49:36.043Z,30.59
2022-10-06T05:52:04.600Z,30.54
2022-10-06T05:54:33.162Z,30.42
2022-10-06T05:57:02.804Z,30.31
2022-10-06T05:59:31.342Z,30.26
2022-10-06T06:01:59.806Z,30.21
2022-10-06T06:04:28.248Z,30.17
2022-10-06T06:06:56.643Z,30.17
2022-10-06T06:09:25.036Z,30.12
2022-10-06T06:11:56.608Z,30.10
2022-10-06T06:14:42.933Z,30.09
2022-10-06T06:17:12.378Z,30.07
2022-10-06T06:19:40.809Z,30.07
2022-10-06T06:22:09.211Z,30.11
2022-10-06T06:24:37.640Z,30.19
2022-10-06T06:27:06.105Z,30.27
2022-10-06T06:29:46.129Z,30.32
2022-10-06T06:32:14.579Z,30.39
2022-10-06T06:34:43.097Z,30.48
2022-10-06T06:37:15.323Z,30.54
2022-10-06T06:39:43.918Z,30.59
2022-10-06T06:42:12.197Z,30.62
2022-10-06T06:44:41.482Z,30.71
2022-10-06T06:47:10.766Z,30.80
2022-10-06T06:49:39.551Z,30.87
2022-10-06T06:52:08.054Z,30.92
2022-10-06T06:54:36.388Z,30.85
2022-10-06T06:57:04.821Z,30.78
2022-10-06T06:59:35.019Z,30.69
2022-10-06T07:02:04.238Z,30.58
2022-10-06T07:04:34.022Z,30.44
2022-10-06T07:07:02.324Z,30.34
2022-10-06T07:09:30.789Z,30.28
2022-10-06T07:11:59.175Z,30.23
2022-10-06T07:14:27.787Z,30.19
2022-10-06T07:17:14.342Z,30.17
2022-10-06T07:19:48.512Z,30.18
2022-10-06T07:22:38.605Z,30.18
2022-10-06T07:25:28.259Z,30.17
2022-10-06T07:27:56.741Z,30.19
2022-10-06T07:30:28.731Z,30.20
2022-10-06T07:32:57.239Z,30.19
2022-10-06T07:35:26.603Z,30.17
2022-10-06T07:37:55.360Z,30.16
2022-10-06T07:40:23.897Z,30.16
2022-10-06T07:42:55.060Z,30.14
2022-10-06T07:45:40.286Z,30.17
2022-10-06T07:48:20.797Z,30.18
2022-10-06T07:50:51.839Z,30.16
2022-10-06T07:53:20.962Z,30.17
2022-10-06T07:55:50.647Z,30.11
2022-10-06T07:58:21.340Z,30.10
2022-10-06T08:00:50.043Z,30.05
2022-10-06T08:03:19.181Z,30.02
2022-10-06T08:05:49.619Z,30.03
2022-10-06T08:08:18.654Z,30.03
2022-10-06T08:10:54.850Z,30.01
2022-10-06T08:13:24.535Z,30.01
2022-10-06T08:15:53.023Z,29.99
2022-10-06T08:18:41.366Z,30.01
2022-10-06T08:21:15.067Z,30.04
2022-10-06T08:23:45.360Z,30.04
2022-10-06T08:26:15.374Z,30.05
2022-10-06T08:28:49.736Z,30.06
2022-10-06T08:31:22.187Z,30.09
2022-10-06T08:33:54.381Z,30.11
2022-10-06T08:36:25.913Z,30.11
2022-10-06T08:38:57.268Z,30.09
2022-10-06T08:41:52.793Z,30.09
2022-10-06T08:44:58.958Z,30.09
2022-10-06T08:47:34.489Z,30.11
2022-10-06T08:50:10.665Z,30.13
2022-10-06T08:52:51.245Z,30.14
2022-10-06T08:55:47.761Z,30.17
2022-10-06T08:58:34.954Z,30.20
2022-10-06T09:01:11.129Z,30.18
2022-10-06T09:03:39.843Z,30.17
2022-10-06T09:06:35.727Z,30.16
2022-10-06T09:09:49.626Z,30.14
2022-10-06T09:12:36.608Z,30.16
2022-10-06T09:15:32.080Z,30.16
2022-10-06T09:18:49.001Z,30.14
2022-10-06T09:21:42.278Z,30.14
2022-10-06T09:24:17.595Z,30.12
2022-10-06T09:26:49.871Z,30.10
2022-10-06T09:29:18.707Z,30.10
2022-10-06T09:31:53.805Z,30.08
2022-10-06T09:34:27.727Z,30.06
2022-10-06T09:37:09.994Z,30.06
2022-10-06T09:39:42.208Z,30.07
2022-10-06T09:42:22.306Z,30.09
2022-10-06T09:45:11.817Z,30.11
2022-10-06T09:47:41.817Z,30.14
2022-10-06T09:50:23.883Z,30.17
2022-10-06T09:53:01.711Z,30.21
2022-10-06T09:55:42.684Z,30.12
2022-10-06T09:58:30.538Z,29.98
2022-10-06T10:01:10.519Z,29.72
2022-10-06T10:04:20.897Z,29.52
2022-10-06T10:06:50.759Z,29.23
2022-10-06T10:09:21.938Z,28.97
2022-10-06T10:12:26.072Z,28.68
2022-10-06T10:14:57.772Z,28.29
2022-10-06T10:17:41.095Z,27.92
2022-10-06T10:20:37.118Z,27.59
2022-10-06T10:23:10.280Z,27.27
2022-10-06T10:25:48.460Z,26.99
2022-10-06T10:28:30.321Z,26.80
2022-10-06T10:31:16.882Z,26.66
2022-10-06T10:34:23.512Z,26.54
2022-10-06T10:37:06.064Z,26.43
2022-10-06T10:39:41.005Z,26.35
2022-10-06T10:42:49.927Z,26.26
2022-10-06T10:45:33.203Z,26.18
2022-10-06T10:48:04.265Z,26.13
2022-10-06T10:51:11.116Z,26.09
2022-10-06T10:53:42.607Z,26.05
2022-10-06T10:56:14.912Z,26.02
2022-10-06T10:58:45.742Z,25.98
2022-10-06T11:01:28.424Z,25.95
2022-10-06T11:03:59.246Z,25.93
2022-10-06T11:07:05.941Z,25.89
2022-10-06T11:10:00.451Z,25.87
2022-10-06T11:12:59.714Z,25.85
2022-10-06T11:15:46.145Z,25.84
2022-10-06T11:18:23.305Z,25.83
2022-10-06T11:21:02.260Z,25.83
2022-10-06T11:23:52.531Z,25.82
2022-10-06T11:26:38.965Z,25.80
2022-10-06T11:29:34.534Z,25.78
2022-10-06T11:32:18.906Z,25.77
2022-10-06T11:34:50.978Z,25.77
2022-10-06T11:37:25.851Z,25.77
2022-10-06T11:40:06.089Z,25.77
2022-10-06T11:42:57.062Z,25.77
2022-10-06T11:45:41.839Z,25.75
2022-10-06T11:48:27.641Z,25.75
2022-10-06T11:50:57.820Z,25.76
2022-10-06T11:53:38.141Z,25.76
2022-10-06T11:56:21.123Z,25.73
2022-10-06T11:58:52.671Z,25.73
2022-10-06T12:01:37.153Z,25.73
2022-10-06T12:04:06.280Z,25.73
2022-10-06T12:06:43.797Z,25.73
2022-10-06T12:09:27.145Z,25.75
2022-10-06T12:12:03.885Z,25.74
2022-10-06T12:17:46.402Z,25.75
2022-10-06T12:20:35.384Z,25.75
2022-10-06T12:23:20.939Z,25.75
2022-10-06T12:26:15.479Z,25.76
2022-10-06T12:28:52.248Z,25.76
2022-10-06T12:31:26.290Z,25.77
2022-10-06T12:33:54.882Z,25.77
2022-10-06T12:36:32.575Z,25.77
2022-10-06T12:39:26.568Z,25.77
2022-10-06T12:42:20.846Z,25.77
2022-10-06T12:44:50.818Z,25.77
2022-10-06T12:47:34.015Z,25.76
2022-10-06T12:50:12.014Z,25.77
2022-10-06T12:53:06.835Z,25.76
2022-10-06T12:55:45.283Z,25.77
2022-10-06T12:58:29.966Z,25.77
2022-10-06T13:01:05.341Z,25.77
2022-10-06T13:03:36.516Z,25.77
2022-10-06T13:06:08.414Z,25.78
2022-10-06T13:08:41.006Z,25.77
2022-10-06T13:11:26.261Z,25.78
2022-10-06T13:13:56.834Z,25.78
2022-10-06T13:16:32.597Z,25.78
2022-10-06T13:19:04.653Z,25.76
2022-10-06T13:21:35.216Z,25.79
2022-10-06T13:24:04.494Z,25.78
2022-10-06T13:26:35.626Z,25.76
2022-10-06T13:29:04.032Z,25.77
2022-10-06T13:31:36.102Z,25.77
2022-10-06T13:34:17.921Z,25.78
2022-10-06T13:36:52.319Z,25.78
2022-10-06T13:39:23.177Z,25.80
2022-10-06T13:41:57.684Z,25.80
2022-10-06T13:44:31.814Z,25.81
2022-10-06T13:47:05.279Z,25.81
2022-10-06T13:49:51.083Z,25.82
2022-10-06T13:52:24.401Z,25.82
2022-10-06T13:54:58.612Z,25.82
2022-10-06T13:57:52.375Z,25.81
2022-10-06T14:00:26.415Z,25.81
2022-10-06T14:03:08.548Z,25.82
2022-10-06T14:05:41.078Z,25.81
2022-10-06T14:08:12.439Z,25.80
2022-10-06T14:10:56.513Z,25.82
2022-10-06T14:13:32.961Z,25.81
2022-10-06T14:16:19.366Z,25.81
2022-10-06T14:21:34.958Z,25.81
2022-10-06T14:24:30.095Z,25.81
2022-10-06T14:27:04.087Z,25.82
2022-10-06T14:29:32.644Z,25.82
2022-10-06T14:32:19.533Z,25.83
2022-10-06T14:34:48.169Z,25.84
2022-10-06T14:37:16.813Z,25.85
2022-10-06T14:39:46.681Z,25.86
2022-10-06T14:42:16.430Z,25.85
2022-10-06T14:44:45.794Z,25.85
2022-10-06T14:47:14.316Z,25.87
2022-10-06T14:49:42.703Z,25.86
2022-10-06T14:52:12.504Z,25.87
2022-10-06T14:54:41.300Z,25.87
2022-10-06T14:57:10.704Z,25.89
2022-10-06T14:59:39.238Z,25.89
2022-10-06T15:02:07.985Z,25.92
2022-10-06T15:04:36.341Z,25.93
2022-10-06T15:07:30.526Z,25.95
2022-10-06T15:09:58.901Z,25.96
2022-10-06T15:12:30.556Z,25.99
2022-10-06T15:15:02.171Z,26.00
2022-10-06T15:17:31.164Z,26.01
2022-10-06T15:19:59.526Z,26.03
2022-10-06T15:22:27.895Z,26.04
2022-10-06T15:24:56.290Z,26.06
2022-10-06T15:27:42.963Z,26.07
2022-10-06T15:30:12.358Z,26.09
2022-10-06T15:32:40.782Z,26.10
2022-10-06T15:35:09.516Z,26.12
2022-10-06T15:37:40.240Z,26.12
2022-10-06T15:40:09.051Z,26.13
2022-10-06T15:42:37.464Z,26.14
2022-10-06T15:45:07.636Z,26.15
2022-10-06T15:47:36.533Z,26.15
2022-10-06T15:50:05.606Z,26.14
2022-10-06T15:52:34.928Z,26.15
2022-10-06T15:55:03.357Z,26.15
2022-10-06T15:57:32.465Z,26.15
2022-10-06T16:00:01.074Z,26.15
2022-10-06T16:02:36.049Z,26.15
2022-10-06T16:05:04.505Z,26.13
2022-10-06T16:07:33.649Z,26.13
2022-10-06T16:10:02.139Z,26.12
2022-10-06T16:12:30.511Z,26.11
2022-10-06T16:14:58.933Z,26.11
2022-10-06T16:17:27.239Z,26.11
2022-10-06T16:19:55.570Z,26.11
2022-10-06T16:22:23.935Z,26.10
2022-10-06T16:24:52.379Z,26.09
2022-10-06T16:27:20.862Z,26.08
2022-10-06T16:29:49.301Z,26.07
2022-10-06T16:32:18.200Z,26.06
2022-10-06T16:34:51.244Z,26.07
2022-10-06T16:37:19.716Z,26.06
2022-10-06T16:39:48.100Z,26.06
2022-10-06T16:42:17.564Z,26.06
2022-10-06T16:44:45.999Z,26.05
2022-10-06T16:47:15.211Z,26.04
2022-10-06T16:49:43.497Z,26.04
2022-10-06T16:52:11.851Z,26.03
2022-10-06T16:54:40.295Z,26.03
2022-10-06T16:57:08.953Z,26.04
2022-10-06T16:59:37.293Z,26.02
2022-10-06T17:02:05.755Z,26.01
2022-10-06T17:04:34.212Z,26.00
2022-10-06T17:07:02.624Z,25.99
2022-10-06T17:09:31.107Z,25.99
2022-10-06T17:12:01.877Z,25.98
2022-10-06T17:14:32.315Z,25.98
2022-10-06T17:17:01.177Z,25.97
2022-10-06T17:19:31.528Z,25.95
2022-10-06T17:22:00.391Z,25.96
2022-10-06T17:24:30.539Z,25.95
2022-10-06T17:26:59.382Z,25.94
2022-10-06T17:29:28.180Z,25.93
2022-10-06T17:32:00.573Z,25.93
2022-10-06T17:34:32.834Z,25.92
2022-10-06T17:37:03.404Z,25.90
2022-10-06T17:39:31.961Z,25.91
2022-10-06T17:42:00.539Z,25.88
2022-10-06T17:44:30.535Z,25.87
2022-10-06T17:47:01.379Z,25.87
2022-10-06T17:49:33.599Z,25.85
2022-10-06T17:52:02.203Z,25.85
2022-10-06T17:54:32.814Z,25.84
2022-10-06T17:57:01.154Z,25.83
2022-10-06T17:59:31.486Z,25.82
2022-10-06T18:02:03.535Z,25.81
2022-10-06T18:04:32.240Z,25.80
2022-10-06T18:07:01.335Z,25.80
2022-10-06T18:09:30.508Z,25.79
2022-10-06T18:12:00.960Z,25.78
2022-10-06T18:14:35.810Z,25.77
2022-10-06T18:17:04.789Z,25.76
2022-10-06T18:19:35.840Z,25.76
2022-10-06T18:22:13.842Z,25.74
2022-10-06T18:24:42.456Z,25.74
2022-10-06T18:27:11.133Z,25.72
2022-10-06T18:29:40.098Z,25.70
2022-10-06T18:33:40.696Z,25.70
2022-10-06T18:37:46.423Z,25.68
2022-10-06T18:40:15.865Z,25.66
2022-10-06T18:42:44.298Z,25.65
2022-10-06T18:45:36.798Z,25.65
2022-10-06T18:48:25.702Z,25.63
2022-10-06T18:51:04.060Z,25.63
2022-10-06T18:53:36.694Z,25.63
2022-10-06T18:56:07.886Z,25.62
2022-10-06T18:58:43.195Z,25.61
2022-10-06T19:01:12.628Z,25.61
2022-10-06T19:03:42.004Z,25.59
2022-10-06T19:06:10.404Z,25.59
2022-10-06T19:08:38.811Z,25.57
2022-10-06T19:11:26.878Z,25.56
2022-10-06T19:13:57.208Z,25.55
2022-10-06T19:16:25.914Z,25.55
2022-10-06T19:18:55.478Z,25.55
2022-10-06T19:21:23.849Z,25.55
2022-10-06T19:23:52.273Z,25.53
2022-10-06T19:26:23.576Z,25.54
2022-10-06T19:28:52.097Z,25.53
2022-10-06T19:31:20.905Z,25.53
2022-10-06T19:33:49.826Z,25.51
2022-10-06T19:36:18.643Z,25.51
2022-10-06T19:38:47.813Z,25.50
2022-10-06T19:41:34.359Z,25.49
2022-10-06T19:44:05.612Z,25.47
2022-10-06T19:46:33.985Z,25.46
2022-10-06T19:49:06.564Z,25.45
2022-10-06T19:51:36.392Z,25.45
2022-10-06T19:54:05.734Z,25.43
2022-10-06T19:56:34.268Z,25.44
2022-10-06T19:59:04.001Z,25.42
2022-10-06T20:01:34.623Z,25.40
2022-10-06T20:04:04.996Z,25.39
2022-10-06T20:06:36.500Z,25.37
2022-10-06T20:09:09.810Z,25.35
2022-10-06T20:11:40.962Z,25.34
2022-10-06T20:14:15.864Z,25.32
2022-10-06T20:16:50.136Z,25.30
2022-10-06T20:19:19.859Z,25.29
2022-10-06T20:21:49.831Z,25.27
2022-10-06T20:24:26.694Z,25.26
2022-10-06T20:26:55.476Z,25.25
2022-10-06T20:29:26.251Z,25.23
2022-10-06T20:31:57.333Z,25.23
2022-10-06T20:34:32.664Z,25.20
2022-10-06T20:37:03.394Z,25.19
2022-10-06T20:39:52.576Z,25.17
2022-10-06T20:42:22.023Z,25.15
2022-10-06T20:44:50.634Z,25.14
2022-10-06T20:47:19.029Z,25.13
2022-10-06T20:49:47.724Z,25.13
2022-10-06T20:52:16.187Z,25.11
2022-10-06T20:54:45.093Z,25.10
2022-10-06T20:57:14.025Z,25.09
2022-10-06T20:59:42.588Z,25.07
2022-10-06T21:02:12.576Z,25.06
2022-10-06T21:04:46.548Z,25.06
2022-10-06T21:07:15.385Z,25.06
2022-10-06T21:09:47.507Z,25.06
2022-10-06T21:12:18.847Z,25.07
2022-10-06T21:14:49.344Z,25.06
2022-10-06T21:17:18.199Z,25.06
2022-10-06T21:19:47.102Z,25.05
2022-10-06T21:22:16.123Z,25.04
2022-10-06T21:24:45.112Z,25.04
2022-10-06T21:27:14.004Z,25.03
2022-10-06T21:29:42.867Z,25.03
2022-10-06T21:32:11.817Z,25.02
2022-10-06T21:34:41.633Z,25.02
2022-10-06T21:37:10.678Z,25.01
2022-10-06T21:39:39.516Z,25.00
2022-10-06T21:42:08.603Z,25.00
2022-10-06T21:44:37.544Z,25.00
2022-10-06T21:47:06.592Z,24.99
2022-10-06T21:49:35.605Z,24.99
2022-10-06T21:52:07.578Z,24.98
2022-10-06T21:54:37.070Z,24.98
2022-10-06T21:57:06.140Z,24.98
2022-10-06T21:59:34.969Z,24.97
2022-10-06T22:02:04.089Z,24.96
2022-10-06T22:04:33.106Z,24.96
2022-10-06T22:07:01.957Z,24.95
2022-10-06T22:09:30.890Z,24.95
2022-10-06T22:12:00.269Z,24.93
2022-10-06T22:14:29.335Z,24.93
2022-10-06T22:16:58.164Z,24.92
2022-10-06T22:19:27.053Z,24.91
2022-10-06T22:21:56.302Z,24.91
2022-10-06T22:24:25.239Z,24.89
2022-10-06T22:26:54.266Z,24.89
2022-10-06T22:29:23.344Z,24.88
2022-10-06T22:31:52.571Z,24.87
2022-10-06T22:34:22.557Z,24.89
2022-10-06T22:36:51.782Z,24.87
2022-10-06T22:39:20.761Z,24.87
2022-10-06T22:41:49.682Z,24.85
2022-10-06T22:44:18.564Z,24.86
2022-10-06T22:46:47.618Z,24.85
2022-10-06T22:49:16.664Z,24.84
2022-10-06T22:51:45.617Z,24.83
2022-10-06T22:54:20.202Z,24.83
2022-10-06T22:56:49.087Z,24.82
2022-10-06T22:59:17.954Z,24.82
2022-10-06T23:01:46.846Z,24.81
2022-10-06T23:04:15.846Z,24.81
2022-10-06T23:06:44.816Z,24.79
2022-10-06T23:09:14.081Z,24.81
2022-10-06T23:11:42.982Z,24.81
2022-10-06T23:14:11.966Z,24.81
2022-10-06T23:16:40.946Z,24.81
2022-10-06T23:19:09.886Z,24.83
2022-10-06T23:21:41.411Z,24.83
2022-10-06T23:24:10.456Z,24.84
2022-10-06T23:26:39.392Z,24.85
2022-10-06T23:29:08.940Z,24.86
2022-10-06T23:31:37.824Z,24.88
2022-10-06T23:34:06.782Z,24.89
2022-10-06T23:36:35.758Z,24.92
2022-10-06T23:39:04.757Z,24.95
2022-10-06T23:41:33.658Z,24.98
2022-10-06T23:44:02.751Z,25.01
2022-10-06T23:46:31.690Z,25.05
2022-10-06T23:49:00.781Z,25.07
2022-10-06T23:51:29.698Z,25.11
2022-10-06T23:53:58.615Z,25.14
2022-10-06T23:56:27.576Z,25.16
2022-10-06T23:58:56.518Z,25.21
